Terminal Aerodrome Forecast
Issued by NWS

Home | Current Version | Previous Version | Text Only | Print | Product List | Glossary On
Versions: 1 2 3 4 5 6 7 8 9 10 11 12 13 14 15
000
FTUS41 KBGM 051736
TAFELM
TAF
KELM 051736Z 0518/0618 04004KT P6SM SCT070 BKN250
     FM060200 VRB03KT P6SM -RA OVC050
     FM060600 VRB03KT 5SM -RA BR OVC025
     FM061400 VRB03KT P6SM OVC040=

USA.gov is the U.S. government's official web portal to all federal, state and local government web resources and services.